Time;durP1;ratioP1;P1;durP2;ratioP2;P2;SDS_P1;SDS_P2;PMS_P1;PMS_P2;Temp;Humidity;BMP_temperature;BMP_pressure;BME280_temperature;BME280_humidity;BME280_pressure;Samples;Min_cycle;Max_cycle;Signal;HPM_P1;HPM_P2
2022/12/21 00:00:52;;;;;;;10.07;6.63;;;;;;;;;;5029753;28;20808;-87
2022/12/21 00:03:18;;;;;;;10.17;6.40;;;;;;;;;;4989708;28;20442;-86
2022/12/21 00:05:44;;;;;;;8.50;5.70;;;;;;;;;;5029346;28;20428;-87
2022/12/21 00:08:10;;;;;;;10.60;6.90;;;;;;;;;;5029975;28;20407;-87
2022/12/21 00:10:36;;;;;;;12.77;8.20;;;;;;;;;;5029846;28;20430;-86
2022/12/21 00:13:02;;;;;;;10.00;6.40;;;;;;;;;;5014673;28;20410;-87
2022/12/21 00:15:28;;;;;;;8.93;5.57;;;;;;;;;;5029428;28;20486;-86
2022/12/21 00:17:54;;;;;;;9.17;5.90;;;;;;;;;;5029299;28;20411;-88
2022/12/21 00:20:20;;;;;;;8.90;5.50;;;;;;;;;;5014466;28;20810;-87
2022/12/21 00:22:46;;;;;;;10.93;6.50;;;;;;;;;;5014643;28;20966;-86
2022/12/21 00:25:12;;;;;;;10.00;7.27;;;;;;;;;;5014483;28;20484;-87
2022/12/21 00:27:38;;;;;;;10.47;6.37;;;;;;;;;;5029666;28;20415;-88
2022/12/21 00:30:04;;;;;;;8.57;5.50;;;;;;;;;;5028824;28;20576;-86
2022/12/21 00:32:30;;;;;;;9.33;5.00;;;;;;;;;;5029283;28;20414;-86
2022/12/21 00:34:56;;;;;;;8.23;5.43;;;;;;;;;;5029133;28;20465;-85
2022/12/21 00:37:24;;;;;;;7.00;5.10;;;;;;;;;;5014074;28;20421;-85
2022/12/21 00:39:50;;;;;;;9.03;5.80;;;;;;;;;;5028755;28;20927;-86
2022/12/21 00:42:16;;;;;;;8.70;6.20;;;;;;;;;;5033395;28;20510;-87
2022/12/21 00:44:42;;;;;;;11.10;5.60;;;;;;;;;;5013537;28;20454;-87
2022/12/21 00:47:08;;;;;;;8.80;5.47;;;;;;;;;;5028510;28;20451;-87
2022/12/21 00:49:34;;;;;;;7.50;4.90;;;;;;;;;;5028613;28;20474;-86
2022/12/21 00:52:00;;;;;;;12.40;5.33;;;;;;;;;;5013904;28;20822;-86
2022/12/21 00:54:26;;;;;;;7.90;3.97;;;;;;;;;;5013293;28;20518;-87
2022/12/21 00:56:52;;;;;;;7.13;4.50;;;;;;;;;;5029091;28;20481;-87
2022/12/21 00:59:18;;;;;;;9.63;4.87;;;;;;;;;;5013721;28;20494;-86
2022/12/21 01:01:44;;;;;;;8.33;5.30;;;;;;;;;;5028545;28;20534;-85
2022/12/21 01:04:10;;;;;;;10.57;6.30;;;;;;;;;;5029309;28;20445;-87
2022/12/21 01:06:36;;;;;;;11.43;5.90;;;;;;;;;;5028767;28;20466;-87
2022/12/21 01:09:05;;;;;;;10.00;6.90;;;;;;;;;;5013292;28;20491;-88
2022/12/21 01:11:31;;;;;;;10.40;5.43;;;;;;;;;;5028793;28;20429;-87
2022/12/21 01:13:59;;;;;;;7.93;5.63;;;;;;;;;;5028444;28;20419;-87
2022/12/21 01:16:27;;;;;;;8.13;5.87;;;;;;;;;;5028003;28;20486;-87
2022/12/21 01:18:53;;;;;;;7.53;5.30;;;;;;;;;;5028321;28;20430;-87
2022/12/21 01:21:24;;;;;;;9.70;4.13;;;;;;;;;;5028153;28;20845;-86
2022/12/21 01:23:50;;;;;;;9.57;5.70;;;;;;;;;;5027985;28;20418;-86
2022/12/21 01:26:17;;;;;;;11.70;5.97;;;;;;;;;;5027780;28;20428;-87
2022/12/21 01:28:43;;;;;;;12.70;6.67;;;;;;;;;;5028663;28;20430;-86
2022/12/21 01:31:09;;;;;;;11.30;5.70;;;;;;;;;;5013157;28;20418;-88
2022/12/21 01:33:35;;;;;;;8.33;5.33;;;;;;;;;;5028830;28;20418;-86
2022/12/21 01:36:05;;;;;;;8.17;5.30;;;;;;;;;;5013162;28;20476;-87
2022/12/21 01:38:31;;;;;;;9.37;5.50;;;;;;;;;;5028634;28;20472;-87
2022/12/21 01:40:57;;;;;;;7.87;4.30;;;;;;;;;;5013209;28;20398;-87
2022/12/21 01:43:40;;;;;;;8.20;4.90;;;;;;;;;;5028146;28;20425;-87
2022/12/21 01:46:09;;;;;;;8.33;5.10;;;;;;;;;;5012797;28;20483;-87
2022/12/21 01:48:37;;;;;;;9.17;5.87;;;;;;;;;;5028302;28;20420;-85
2022/12/21 01:51:05;;;;;;;7.57;4.10;;;;;;;;;;5012395;28;20510;-86
2022/12/21 01:53:33;;;;;;;7.43;4.30;;;;;;;;;;5028097;28;20426;-86
2022/12/21 01:56:00;;;;;;;7.57;3.63;;;;;;;;;;5012808;28;20527;-86
2022/12/21 01:58:30;;;;;;;6.37;4.00;;;;;;;;;;5012840;28;20465;-85
2022/12/21 02:00:57;;;;;;;5.50;3.63;;;;;;;;;;5015629;28;20408;-86
2022/12/21 02:03:25;;;;;;;8.40;5.73;;;;;;;;;;4991347;28;20423;-86
2022/12/21 02:05:53;;;;;;;8.30;4.40;;;;;;;;;;5032099;28;20466;-86
2022/12/21 02:08:19;;;;;;;7.70;3.90;;;;;;;;;;5031972;28;20533;-87
2022/12/21 02:10:45;;;;;;;5.30;2.70;;;;;;;;;;5016903;28;20858;-87
2022/12/21 02:13:15;;;;;;;6.00;3.30;;;;;;;;;;5031438;28;20485;-86
2022/12/21 02:15:47;;;;;;;5.50;3.37;;;;;;;;;;5031512;28;20494;-87
2022/12/21 02:18:20;;;;;;;23.23;6.00;;;;;;;;;;5031955;28;20420;-86
2022/12/21 02:21:09;;;;;;;6.47;4.40;;;;;;;;;;5031967;28;20578;-86
2022/12/21 02:23:50;;;;;;;6.60;3.30;;;;;;;;;;5032188;28;20426;-87
2022/12/21 02:26:35;;;;;;;9.23;3.90;;;;;;;;;;5031163;28;20398;-87
2022/12/21 02:29:16;;;;;;;7.97;4.93;;;;;;;;;;5032140;28;20430;-86
2022/12/21 02:32:04;;;;;;;6.63;3.87;;;;;;;;;;5032268;28;20429;-87
2022/12/21 02:34:43;;;;;;;7.87;4.90;;;;;;;;;;5016357;28;20402;-87
2022/12/21 02:37:16;;;;;;;9.37;5.97;;;;;;;;;;5031798;28;20428;-86
2022/12/21 02:39:57;;;;;;;12.37;5.60;;;;;;;;;;5031235;28;20415;-88
2022/12/21 02:45:13;;;;;;;8.27;4.60;;;;;;;;;;5016320;28;20475;-87
2022/12/21 02:47:45;;;;;;;8.73;5.00;;;;;;;;;;5030821;28;20423;-87
2022/12/21 02:50:12;;;;;;;16.90;5.80;;;;;;;;;;5031188;28;20761;-86
2022/12/21 02:52:41;;;;;;;6.63;4.23;;;;;;;;;;5030750;28;20538;-87
2022/12/21 02:55:09;;;;;;;8.00;4.30;;;;;;;;;;5031320;28;20924;-87
2022/12/21 02:57:37;;;;;;;8.13;3.63;;;;;;;;;;5014743;28;20425;-87
2022/12/21 03:00:05;;;;;;;9.50;4.70;;;;;;;;;;5031061;28;20977;-87
2022/12/21 03:02:49;;;;;;;7.30;3.20;;;;;;;;;;5014299;28;20942;-88
2022/12/21 03:05:33;;;;;;;7.37;3.63;;;;;;;;;;5031367;28;20403;-85
2022/12/21 03:08:11;;;;;;;7.90;4.07;;;;;;;;;;5015598;28;20405;-87
2022/12/21 03:10:37;;;;;;;8.93;4.93;;;;;;;;;;5029410;28;20418;-87
2022/12/21 03:13:17;;;;;;;9.00;5.57;;;;;;;;;;5030856;28;20916;-87
2022/12/21 03:15:48;;;;;;;6.70;3.80;;;;;;;;;;5015277;28;20482;-87
2022/12/21 03:18:20;;;;;;;6.23;3.67;;;;;;;;;;5031155;28;20403;-88
2022/12/21 03:20:56;;;;;;;9.03;2.93;;;;;;;;;;5015930;28;20887;-86
2022/12/21 03:23:42;;;;;;;13.40;4.07;;;;;;;;;;5030820;28;20786;-87
2022/12/21 03:26:12;;;;;;;8.80;3.73;;;;;;;;;;5014126;28;20426;-87
2022/12/21 03:28:40;;;;;;;4.63;2.93;;;;;;;;;;5015409;28;20433;-88
2022/12/21 03:31:09;;;;;;;15.57;4.50;;;;;;;;;;5014932;28;20944;-88
2022/12/21 03:33:38;;;;;;;8.63;4.27;;;;;;;;;;5015712;28;20453;-88
2022/12/21 03:36:06;;;;;;;12.70;5.07;;;;;;;;;;5014838;28;20509;-87
2022/12/21 03:38:36;;;;;;;11.00;4.20;;;;;;;;;;5029899;28;20473;-88
2022/12/21 03:41:05;;;;;;;7.57;3.23;;;;;;;;;;5030349;28;20962;-86
2022/12/21 03:43:33;;;;;;;7.40;4.33;;;;;;;;;;5015094;28;20482;-88
2022/12/21 03:46:01;;;;;;;17.30;4.20;;;;;;;;;;5030016;28;20483;-88
2022/12/21 03:48:31;;;;;;;12.20;3.63;;;;;;;;;;5014955;28;20413;-88
2022/12/21 03:50:59;;;;;;;22.40;4.80;;;;;;;;;;5030265;28;20413;-88
2022/12/21 03:53:40;;;;;;;13.33;3.80;;;;;;;;;;5030389;28;20425;-87
2022/12/21 03:56:08;;;;;;;27.97;3.83;;;;;;;;;;5030022;28;20481;-88
2022/12/21 03:58:37;;;;;;;10.57;2.73;;;;;;;;;;5030773;28;20465;-87
2022/12/21 04:01:06;;;;;;;24.17;4.77;;;;;;;;;;5029777;28;20425;-87
2022/12/21 04:03:35;;;;;;;7.17;3.23;;;;;;;;;;5029944;28;20422;-89
2022/12/21 04:06:06;;;;;;;7.30;2.47;;;;;;;;;;5015386;28;20504;-88
2022/12/21 04:08:32;;;;;;;14.73;3.80;;;;;;;;;;5030219;28;20409;-88
2022/12/21 04:10:58;;;;;;;28.63;4.33;;;;;;;;;;5030203;28;20423;-87
2022/12/21 04:13:24;;;;;;;16.27;3.70;;;;;;;;;;5015185;28;20766;-88
2022/12/21 04:16:03;;;;;;;9.70;3.13;;;;;;;;;;5014317;28;20564;-88
2022/12/21 04:21:13;;;;;;;13.37;4.60;;;;;;;;;;5015313;28;20417;-88
2022/12/21 04:29:09;;;;;;;28.53;4.60;;;;;;;;;;5014680;28;20806;-88
2022/12/21 04:31:35;;;;;;;13.23;4.50;;;;;;;;;;5028705;28;20437;-88
2022/12/21 04:34:01;;;;;;;19.20;5.27;;;;;;;;;;5029878;28;20435;-88
2022/12/21 04:39:12;;;;;;;6.43;3.70;;;;;;;;;;5014668;28;20924;-85
2022/12/21 04:41:38;;;;;;;20.53;4.60;;;;;;;;;;5029332;28;20425;-89
2022/12/21 04:44:04;;;;;;;7.07;3.60;;;;;;;;;;5029547;28;20420;-87
2022/12/21 04:46:30;;;;;;;8.97;3.23;;;;;;;;;;5029239;28;20417;-88
2022/12/21 04:48:55;;;;;;;8.07;3.37;;;;;;;;;;5029350;28;20415;-87
2022/12/21 04:51:22;;;;;;;7.20;3.60;;;;;;;;;;5029471;28;20483;-89
2022/12/21 04:53:49;;;;;;;22.27;3.53;;;;;;;;;;5013972;28;20457;-88
2022/12/21 04:56:15;;;;;;;10.10;4.17;;;;;;;;;;5013613;28;20465;-88
2022/12/21 04:58:42;;;;;;;13.97;4.60;;;;;;;;;;5029127;28;20421;-89
2022/12/21 05:01:09;;;;;;;8.60;3.13;;;;;;;;;;5013570;28;20417;-87
2022/12/21 05:03:35;;;;;;;7.07;3.33;;;;;;;;;;5028783;28;20450;-89
2022/12/21 05:06:00;;;;;;;9.07;4.90;;;;;;;;;;5029658;28;20919;-89
2022/12/21 05:08:26;;;;;;;12.47;5.60;;;;;;;;;;5014636;28;20480;-89
2022/12/21 05:10:52;;;;;;;8.87;4.97;;;;;;;;;;5029614;28;20430;-90
2022/12/21 05:13:18;;;;;;;10.17;4.87;;;;;;;;;;5014435;28;20927;-88
2022/12/21 05:15:44;;;;;;;8.20;3.53;;;;;;;;;;5013843;28;20576;-89
2022/12/21 05:18:10;;;;;;;10.87;5.43;;;;;;;;;;5014634;28;20417;-90
2022/12/21 05:20:36;;;;;;;9.07;5.50;;;;;;;;;;5014552;28;20434;-90
2022/12/21 05:23:02;;;;;;;12.43;5.87;;;;;;;;;;5015567;28;20418;-89
2022/12/21 05:25:28;;;;;;;9.60;3.70;;;;;;;;;;5018815;28;20424;-87
2022/12/21 05:27:54;;;;;;;10.00;5.00;;;;;;;;;;5029305;28;20425;-89
2022/12/21 05:30:20;;;;;;;8.33;5.00;;;;;;;;;;5029075;28;20948;-89
2022/12/21 05:32:46;;;;;;;8.70;4.30;;;;;;;;;;5029242;28;20512;-91
2022/12/21 05:35:12;;;;;;;10.37;5.87;;;;;;;;;;5029520;28;20470;-92
2022/12/21 05:37:38;;;;;;;14.33;5.20;;;;;;;;;;5014441;28;20403;-91
2022/12/21 05:40:04;;;;;;;13.00;4.80;;;;;;;;;;5014336;28;20410;-89
2022/12/21 05:42:30;;;;;;;14.63;5.60;;;;;;;;;;5014286;28;20750;-89
2022/12/21 05:44:56;;;;;;;10.27;4.40;;;;;;;;;;5029438;28;20425;-90
2022/12/21 05:47:22;;;;;;;11.90;5.57;;;;;;;;;;5014147;28;20425;-90
2022/12/21 05:49:47;;;;;;;24.90;6.10;;;;;;;;;;5003062;28;20464;-86
2022/12/21 05:52:13;;;;;;;20.07;4.67;;;;;;;;;;5016798;28;20411;-89
2022/12/21 05:54:39;;;;;;;37.20;4.57;;;;;;;;;;5029362;28;20428;-90
2022/12/21 05:57:05;;;;;;;41.50;6.30;;;;;;;;;;5028445;28;20427;-87
2022/12/21 05:59:31;;;;;;;33.83;4.30;;;;;;;;;;5028631;28;20636;-88
2022/12/21 06:01:57;;;;;;;34.80;6.60;;;;;;;;;;5028191;28;20432;-88
2022/12/21 06:04:23;;;;;;;45.33;6.90;;;;;;;;;;5028550;28;20418;-87
2022/12/21 06:06:49;;;;;;;69.00;7.90;;;;;;;;;;5028288;28;20481;-87
2022/12/21 06:09:15;;;;;;;44.97;6.97;;;;;;;;;;5013105;28;20425;-88
2022/12/21 06:11:41;;;;;;;49.70;5.97;;;;;;;;;;5013254;28;20425;-88
2022/12/21 06:14:07;;;;;;;44.50;6.13;;;;;;;;;;5028266;28;20507;-88
2022/12/21 06:16:33;;;;;;;31.80;3.93;;;;;;;;;;5027345;28;20483;-88
2022/12/21 06:18:59;;;;;;;33.43;5.13;;;;;;;;;;5027863;28;20413;-88
2022/12/21 06:21:26;;;;;;;44.77;5.97;;;;;;;;;;5028859;28;20822;-89
2022/12/21 06:23:52;;;;;;;29.33;3.93;;;;;;;;;;5012085;28;20500;-88
2022/12/21 06:26:19;;;;;;;35.70;5.90;;;;;;;;;;5027032;28;20420;-88
2022/12/21 06:28:52;;;;;;;16.80;4.53;;;;;;;;;;5012291;28;20892;-89
2022/12/21 06:31:19;;;;;;;27.57;3.47;;;;;;;;;;5028001;28;20491;-90
2022/12/21 06:33:44;;;;;;;38.03;4.93;;;;;;;;;;5028440;28;20777;-89
2022/12/21 06:36:11;;;;;;;26.17;4.03;;;;;;;;;;5028282;28;20469;-89
2022/12/21 06:38:37;;;;;;;36.13;5.20;;;;;;;;;;5028458;28;20436;-88
2022/12/21 06:41:05;;;;;;;28.47;3.23;;;;;;;;;;5028329;28;20435;-89
2022/12/21 06:43:32;;;;;;;23.20;4.17;;;;;;;;;;5028442;28;20524;-89
2022/12/21 06:45:59;;;;;;;25.87;4.40;;;;;;;;;;5030129;28;20433;-88
2022/12/21 06:48:26;;;;;;;35.60;3.77;;;;;;;;;;5031873;28;20410;-89
2022/12/21 06:50:59;;;;;;;30.00;3.43;;;;;;;;;;4979604;28;20876;-88
2022/12/21 06:53:26;;;;;;;11.67;2.00;;;;;;;;;;5016844;28;20428;-88
2022/12/21 06:55:59;;;;;;;30.83;2.80;;;;;;;;;;5016392;28;20570;-88
2022/12/21 06:58:25;;;;;;;13.60;2.97;;;;;;;;;;5031964;28;20422;-89
2022/12/21 07:00:51;;;;;;;31.80;4.30;;;;;;;;;;5043331;28;20457;-87
2022/12/21 07:03:17;;;;;;;12.57;2.53;;;;;;;;;;5043371;28;20427;-89
2022/12/21 07:05:43;;;;;;;11.90;1.80;;;;;;;;;;5023402;28;20496;-88
2022/12/21 07:08:09;;;;;;;32.73;4.10;;;;;;;;;;5023355;28;20409;-88
2022/12/21 07:10:37;;;;;;;10.40;2.53;;;;;;;;;;5037554;28;20468;-88
2022/12/21 07:13:03;;;;;;;14.37;3.40;;;;;;;;;;5036890;28;20438;-89
2022/12/21 07:15:32;;;;;;;19.63;2.63;;;;;;;;;;5037209;28;20480;-88
2022/12/21 07:17:59;;;;;;;11.67;3.60;;;;;;;;;;5037775;28;20432;-88
2022/12/21 07:20:26;;;;;;;26.90;2.80;;;;;;;;;;5024655;28;20419;-88
2022/12/21 07:22:52;;;;;;;30.97;3.70;;;;;;;;;;5042911;28;20416;-88
2022/12/21 07:25:19;;;;;;;25.30;2.47;;;;;;;;;;5041599;28;20433;-87
2022/12/21 07:27:46;;;;;;;17.27;3.17;;;;;;;;;;5040759;28;20425;-88
2022/12/21 07:30:13;;;;;;;11.77;1.97;;;;;;;;;;5024707;28;20434;-89
2022/12/21 07:32:39;;;;;;;19.83;4.30;;;;;;;;;;5026502;28;20478;-87
2022/12/21 07:35:11;;;;;;;19.77;6.30;;;;;;;;;;5024489;28;20462;-87
2022/12/21 07:37:37;;;;;;;24.63;6.67;;;;;;;;;;5042158;28;20439;-88
2022/12/21 07:40:07;;;;;;;15.90;4.50;;;;;;;;;;5023478;28;20425;-87
2022/12/21 07:42:38;;;;;;;23.57;3.33;;;;;;;;;;5043012;28;20518;-88
2022/12/21 07:45:04;;;;;;;21.23;4.70;;;;;;;;;;5040993;28;20481;-88
2022/12/21 07:47:32;;;;;;;58.50;6.03;;;;;;;;;;5026464;28;20416;-87
2022/12/21 07:49:59;;;;;;;25.33;4.93;;;;;;;;;;5010641;28;20512;-86
2022/12/21 07:52:25;;;;;;;30.50;5.20;;;;;;;;;;5014427;28;20431;-89
2022/12/21 07:55:02;;;;;;;11.00;3.47;;;;;;;;;;5023186;28;20419;-87
2022/12/21 07:57:29;;;;;;;34.07;4.13;;;;;;;;;;5035163;28;20522;-87
2022/12/21 07:59:55;;;;;;;27.00;5.13;;;;;;;;;;5019768;28;20908;-88
2022/12/21 08:02:21;;;;;;;16.90;4.93;;;;;;;;;;5019113;28;20424;-87
2022/12/21 08:04:47;;;;;;;16.43;5.63;;;;;;;;;;5031583;28;20399;-86
2022/12/21 08:07:13;;;;;;;16.80;5.47;;;;;;;;;;5032503;28;20944;-87
2022/12/21 08:09:40;;;;;;;21.20;5.50;;;;;;;;;;5030233;28;20427;-87
2022/12/21 08:12:06;;;;;;;13.13;4.43;;;;;;;;;;5014125;28;20444;-88
2022/12/21 08:14:32;;;;;;;15.93;4.97;;;;;;;;;;5030043;28;20467;-88
2022/12/21 08:16:59;;;;;;;9.57;5.17;;;;;;;;;;5030909;28;20483;-88
2022/12/21 08:19:26;;;;;;;12.00;5.47;;;;;;;;;;5018729;28;20424;-88
2022/12/21 08:21:54;;;;;;;21.53;3.87;;;;;;;;;;5030965;28;20460;-88
2022/12/21 08:24:20;;;;;;;15.13;3.63;;;;;;;;;;5032089;28;20980;-88
2022/12/21 08:26:46;;;;;;;12.00;4.70;;;;;;;;;;5015276;28;20467;-87
2022/12/21 08:29:13;;;;;;;15.33;5.23;;;;;;;;;;5030966;28;20478;-90
2022/12/21 08:31:39;;;;;;;13.07;4.27;;;;;;;;;;5030106;28;20508;-88
2022/12/21 08:34:06;;;;;;;9.03;5.20;;;;;;;;;;5015057;28;20459;-87
2022/12/21 08:36:32;;;;;;;13.20;5.17;;;;;;;;;;5029770;28;20489;-88
2022/12/21 08:38:58;;;;;;;9.20;3.90;;;;;;;;;;5029783;28;20421;-88
2022/12/21 08:41:24;;;;;;;11.80;6.13;;;;;;;;;;5030052;28;20472;-89
2022/12/21 08:43:55;;;;;;;20.40;5.00;;;;;;;;;;5013121;28;20416;-88
2022/12/21 08:46:22;;;;;;;14.67;5.73;;;;;;;;;;5014065;28;20425;-90
2022/12/21 08:48:49;;;;;;;10.33;4.47;;;;;;;;;;5029517;28;20639;-87
2022/12/21 08:51:15;;;;;;;10.93;4.97;;;;;;;;;;5029248;28;20825;-84
2022/12/21 08:53:41;;;;;;;13.37;5.87;;;7.30;99.90;;;;;;5029251;28;20517;-84
2022/12/21 08:56:07;;;;;;;12.13;5.40;;;;;;;;;;5012547;28;20484;-83
2022/12/21 08:58:33;;;;;;;13.23;5.20;;;;;;;;;;5012518;28;20428;-86
2022/12/21 09:00:59;;;;;;;19.53;6.60;;;;;;;;;;4971379;28;20448;-83
2022/12/21 09:03:26;;;;;;;14.93;5.43;;;;;;;;;;5012959;28;20408;-82
2022/12/21 09:05:56;;;;;;;14.90;7.27;;;;;;;;;;5013366;28;20413;-82
2022/12/21 09:08:22;;;;;;;14.33;5.90;;;;;;;;;;5026790;28;20424;-82
2022/12/21 09:10:47;;;;;;;14.50;8.10;;;;;;;;;;5028172;28;20836;-83
2022/12/21 09:13:13;;;;;;;12.90;5.63;;;;;;;;;;5028454;28;20479;-82
2022/12/21 09:15:42;;;;;;;16.00;7.67;;;7.20;99.90;;;;;;5012498;28;20500;-82
2022/12/21 09:18:14;;;;;;;29.03;8.73;;;;;;;;;;5012814;28;20429;-82
2022/12/21 09:20:39;;;;;;;19.37;6.80;;;;;;;;;;5012974;28;20413;-82
2022/12/21 09:23:05;;;;;;;16.07;8.63;;;;;;;;;;5012218;28;20414;-82
2022/12/21 09:25:31;;;;;;;18.10;8.00;;;;;;;;;;5026506;28;20453;-82
2022/12/21 09:28:00;;;;;;;18.43;6.70;;;;;;;;;;5012454;28;20420;-82
2022/12/21 09:30:28;;;;;;;20.70;7.70;;;;;;;;;;5011022;28;20966;-82
2022/12/21 09:32:54;;;;;;;18.30;7.47;;;;;;;;;;5011310;28;20425;-82
2022/12/21 09:35:22;;;;;;;16.23;7.27;;;;;;;;;;5027674;28;20842;-82
2022/12/21 09:37:49;;;;;;;17.73;9.40;;;;;;;;;;5012799;28;20406;-82
2022/12/21 09:40:17;;;;;;;21.17;7.00;;;;;;;;;;5010194;28;20437;-82
2022/12/21 09:42:52;;;;;;;19.50;9.10;;;;;;;;;;5009493;28;20416;-81
2022/12/21 09:45:32;;;;;;;17.20;7.00;;;;;;;;;;5011114;28;20492;-82
2022/12/21 09:48:23;;;;;;;17.93;8.30;;;7.50;99.90;;;;;;5011043;28;20464;-81
2022/12/21 09:50:56;;;;;;;21.20;8.00;;;;;;;;;;5010274;28;20957;-82
2022/12/21 09:53:28;;;;;;;17.57;9.10;;;;;;;;;;5010611;28;20462;-80
2022/12/21 09:55:59;;;;;;;23.70;9.37;;;;;;;;;;5010080;28;20493;-79
2022/12/21 09:58:31;;;;;;;17.27;8.70;;;;;;;;;;5010037;28;20450;-81
2022/12/21 10:01:09;;;;;;;17.33;7.10;;;;;;;;;;5009329;28;20429;-81
2022/12/21 10:03:40;;;;;;;23.67;9.40;;;;;;;;;;5010470;28;20426;-81
2022/12/21 10:06:19;;;;;;;25.23;9.27;;;;;;;;;;5010944;28;20433;-81
2022/12/21 10:08:53;;;;;;;20.53;8.73;;;7.60;99.90;;;;;;5012417;28;20424;-80
2022/12/21 10:11:41;;;;;;;26.83;10.70;;;7.90;99.90;;;;;;5012615;28;20427;-80
2022/12/21 10:14:19;;;;;;;20.33;7.97;;;7.90;99.90;;;;;;5012441;28;20416;-81
2022/12/21 10:17:12;;;;;;;15.53;7.77;;;7.90;99.90;;;;;;5009351;28;20575;-81
2022/12/21 10:20:07;;;;;;;20.90;9.67;;;7.90;99.90;;;;;;5010315;28;20425;-83
2022/12/21 10:22:38;;;;;;;23.27;8.10;;;;;;;;;;5001088;28;20445;-83
2022/12/21 10:25:24;;;;;;;17.37;7.97;;;;;;;;;;4994220;28;20417;-83
2022/12/21 10:28:09;;;;;;;23.87;8.80;;;;;;;;;;4993977;28;20430;-83
2022/12/21 10:30:37;;;;;;;20.63;9.33;;;8.00;99.90;;;;;;5009822;28;20422;-83
2022/12/21 10:33:04;;;;;;;27.50;10.40;;;8.20;99.90;;;;;;5011441;28;20415;-84
2022/12/21 10:35:36;;;;;;;28.60;11.27;;;8.20;99.90;;;;;;4995286;28;20499;-83
2022/12/21 10:38:04;;;;;;;20.00;9.53;;;;;;;;;;4995065;28;20407;-83
2022/12/21 10:40:32;;;;;;;19.80;10.80;;;8.10;99.90;;;;;;4996657;28;20499;-83
2022/12/21 10:42:58;;;;;;;16.97;7.20;;;8.30;99.90;;;;;;4996738;28;20426;-82
2022/12/21 10:45:25;;;;;;;20.10;7.33;;;8.20;99.90;;;;;;5011401;28;20925;-83
2022/12/21 10:47:50;;;;;;;23.40;9.13;;;8.20;99.90;;;;;;5011740;28;20445;-82
2022/12/21 10:50:25;;;;;;;17.03;7.63;;;;;;;;;;5011653;28;20514;-82
2022/12/21 10:52:56;;;;;;;17.30;7.90;;;8.00;99.90;;;;;;4996632;28;20171;-82
2022/12/21 10:55:21;;;;;;;17.33;8.40;;;8.10;99.90;;;;;;4996447;28;20466;-83
2022/12/21 10:57:55;;;;;;;13.57;7.20;;;8.10;99.90;;;;;;4996481;28;20420;-83
2022/12/21 11:00:32;;;;;;;18.03;8.93;;;8.20;99.90;;;;;;4996108;28;20667;-82
2022/12/21 11:03:00;;;;;;;20.17;8.63;;;8.10;99.90;;;;;;4995156;28;20431;-82
2022/12/21 11:05:39;;;;;;;18.17;8.83;;;8.00;99.90;;;;;;4995105;28;20765;-83
2022/12/21 11:08:15;;;;;;;22.20;10.47;;;8.00;99.90;;;;;;4994856;28;20419;-82
2022/12/21 11:10:46;;;;;;;21.33;9.23;;;;;;;;;;4994937;28;20818;-82
2022/12/21 11:13:14;;;;;;;20.80;10.13;;;7.80;99.90;;;;;;5011237;28;20428;-82
2022/12/21 11:15:51;;;;;;;19.17;8.87;;;;;;;;;;4994649;28;20495;-83
2022/12/21 11:18:32;;;;;;;14.77;7.30;;;7.50;99.90;;;;;;5011738;28;20418;-83
2022/12/21 11:20:59;;;;;;;20.23;8.73;;;7.80;99.90;;;;;;5011488;28;20808;-82
2022/12/21 11:23:24;;;;;;;16.37;8.00;;;7.80;99.90;;;;;;4994999;28;20424;-83
2022/12/21 11:25:53;;;;;;;11.60;6.17;;;;;;;;;;5011132;28;20409;-83
2022/12/21 11:28:20;;;;;;;20.97;9.40;;;8.10;99.90;;;;;;4996099;28;20186;-83
2022/12/21 11:30:53;;;;;;;16.27;8.83;;;8.00;99.90;;;;;;4961142;28;20864;-82
2022/12/21 11:33:19;;;;;;;17.90;8.23;;;7.90;99.90;;;;;;5017976;28;20481;-83
2022/12/21 11:36:06;;;;;;;18.50;9.90;;;8.00;99.90;;;;;;5016899;28;20547;-83
2022/12/21 11:38:36;;;;;;;21.00;11.27;;;8.10;99.90;;;;;;5014280;28;20426;-83
2022/12/21 11:41:07;;;;;;;16.47;7.57;;;7.90;99.90;;;;;;5014360;28;20497;-83
2022/12/21 11:43:44;;;;;;;16.93;9.53;;;8.30;99.90;;;;;;5014920;28;20451;-83
2022/12/21 11:46:16;;;;;;;14.03;9.17;;;;;;;;;;5013949;28;20799;-82
2022/12/21 11:49:16;;;;;;;19.80;8.53;;;8.80;99.90;;;;;;5015220;28;20410;-82
2022/12/21 11:52:17;;;;;;;16.63;7.20;;;7.90;99.90;;;;;;5013786;28;20430;-82
2022/12/21 11:55:15;;;;;;;16.43;7.57;;;8.40;99.90;;;;;;5030511;28;20951;-83
2022/12/21 11:57:50;;;;;;;12.33;7.37;;;;;;;;;;5023687;28;20954;-82
2022/12/21 12:00:27;;;;;;;14.70;7.73;;;8.50;99.90;;;;;;5049657;28;20413;-82
2022/12/21 12:03:05;;;;;;;15.00;7.43;;;8.60;99.90;;;;;;5020946;28;20978;-83
2022/12/21 12:06:11;;;;;;;17.00;8.00;;;8.40;99.90;;;;;;5034685;28;20862;-82
2022/12/21 12:08:56;;;;;;;17.57;7.40;;;8.40;99.90;;;;;;5034548;28;20422;-82
2022/12/21 12:11:41;;;;;;;13.60;7.50;;;;;;;;;;5033198;28;20491;-82
2022/12/21 12:14:49;;;;;;;13.73;6.50;;;8.40;99.90;;;;;;5049364;28;20512;-82
2022/12/21 12:17:45;;;;;;;14.30;7.07;;;;;;;;;;5033754;28;20985;-82
2022/12/21 12:20:45;;;;;;;12.60;6.37;;;8.40;99.90;;;;;;5049880;28;20423;-82
2022/12/21 12:23:21;;;;;;;12.03;5.60;;;;;;;;;;5032934;28;20426;-82
2022/12/21 12:25:59;;;;;;;18.43;7.60;;;;;;;;;;5049602;28;20899;-82
2022/12/21 12:28:24;;;;;;;12.80;7.53;;;;;;;;;;5049585;28;20417;-82
2022/12/21 12:31:02;;;;;;;13.97;7.40;;;8.10;99.90;;;;;;4999192;28;20439;-82
2022/12/21 12:33:53;;;;;;;17.60;8.10;;;8.30;99.90;;;;;;5029612;28;20441;-82
2022/12/21 12:36:27;;;;;;;14.20;7.30;;;;;;;;;;5029444;28;20556;-83
2022/12/21 12:39:16;;;;;;;15.83;8.07;;;8.30;99.90;;;;;;5029608;28;20838;-82
2022/12/21 12:41:58;;;;;;;15.57;8.83;;;8.50;99.90;;;;;;5029490;28;20777;-82
2022/12/21 12:44:58;;;;;;;21.33;9.33;;;8.50;99.90;;;;;;5028951;28;20420;-82
2022/12/21 12:47:42;;;;;;;20.50;9.20;;;;;;;;;;5029404;28;20424;-82
2022/12/21 12:50:23;;;;;;;18.40;8.90;;;;;;;;;;5014015;28;20411;-82
2022/12/21 12:52:52;;;;;;;17.13;7.67;;;;;;;;;;5014103;28;20409;-82
2022/12/21 12:55:37;;;;;;;15.40;8.10;;;;;;;;;;5013865;28;20898;-82
2022/12/21 12:58:12;;;;;;;22.53;9.20;;;;;;;;;;5013947;28;20497;-83
2022/12/21 13:00:48;;;;;;;16.07;8.10;;;;;;;;;;5013545;28;20761;-82
2022/12/21 13:03:22;;;;;;;19.03;7.93;;;;;;;;;;5013884;28;20960;-82
2022/12/21 13:05:59;;;;;;;17.40;9.07;;;;;;;;;;5013821;28;20414;-82
2022/12/21 13:08:44;;;;;;;11.10;7.20;;;;;;;;;;5028984;28;20416;-82
2022/12/21 13:11:19;;;;;;;20.47;9.03;;;;;;;;;;5013745;28;20414;-82
2022/12/21 13:13:48;;;;;;;25.80;8.53;;;;;;;;;;5013398;28;20808;-82
2022/12/21 13:16:37;;;;;;;17.10;7.07;;;;;;;;;;5013136;28;20841;-82
2022/12/21 13:19:04;;;;;;;21.67;8.50;;;;;;;;;;5013692;28;20466;-81
2022/12/21 13:21:32;;;;;;;22.17;10.00;;;;;;;;;;5013607;28;20455;-82
2022/12/21 13:24:02;;;;;;;19.50;10.13;;;;;;;;;;5013692;28;20419;-82
2022/12/21 13:26:31;;;;;;;20.50;8.93;;;;;;;;;;5013633;28;20779;-81
2022/12/21 13:29:15;;;;;;;22.07;8.20;;;;;;;;;;5013179;28;20398;-81
2022/12/21 13:31:43;;;;;;;17.43;9.30;;;;;;;;;;4980120;28;20959;-82
2022/12/21 13:34:16;;;;;;;16.20;6.33;;;;;;;;;;5013319;28;20410;-83
2022/12/21 13:36:43;;;;;;;19.43;8.67;;;;;;;;;;5013441;28;20581;-80
2022/12/21 13:39:15;;;;;;;18.93;9.80;;;;;;;;;;5013268;28;20903;-80
2022/12/21 13:41:43;;;;;;;19.87;8.20;;;;;;;;;;5028571;28;20984;-79
2022/12/21 13:44:12;;;;;;;21.03;9.00;;;;;;;;;;5012937;28;20918;-80
2022/12/21 13:46:40;;;;;;;13.30;6.70;;;;;;;;;;5013477;28;20533;-82
2022/12/21 13:49:24;;;;;;;23.67;9.33;;;;;;;;;;5028855;28;20415;-82
2022/12/21 13:51:53;;;;;;;21.77;9.23;;;;;;;;;;5013237;28;20413;-81
2022/12/21 13:54:32;;;;;;;20.83;8.17;;;;;;;;;;5013342;28;21004;-82
2022/12/21 13:57:01;;;;;;;18.70;8.73;;;;;;;;;;5032594;28;20890;-82
2022/12/21 13:59:50;;;;;;;21.10;8.87;;;;;;;;;;5032094;28;20918;-82
2022/12/21 14:02:27;;;;;;;16.57;8.13;;;;;;;;;;5017587;28;20918;-85
2022/12/21 14:04:55;;;;;;;21.43;9.30;;;;;;;;;;5032504;28;20420;-85
2022/12/21 14:07:39;;;;;;;26.80;9.03;;;;;;;;;;5032384;28;20428;-82
2022/12/21 14:10:08;;;;;;;19.00;9.10;;;;;;;;;;5017145;28;20401;-83
2022/12/21 14:12:53;;;;;;;25.87;8.83;;;;;;;;;;5032367;28;20420;-81
2022/12/21 14:15:44;;;;;;;20.87;8.70;;;;;;;;;;5016427;28;20912;-82
2022/12/21 14:18:13;;;;;;;25.30;10.53;;;;;;;;;;5017183;28;20413;-80
2022/12/21 14:20:41;;;;;;;20.60;9.03;;;;;;;;;;5032344;28;20418;-81
2022/12/21 14:23:14;;;;;;;19.57;8.40;;;;;;;;;;5014581;28;20787;-83
2022/12/21 14:25:43;;;;;;;22.43;10.27;;;;;;;;;;5029919;28;20476;-81
2022/12/21 14:28:28;;;;;;;16.33;8.23;;;;;;;;;;5030673;28;20456;-86
2022/12/21 14:31:27;;;;;;;18.00;8.03;;;;;;;;;;5030432;28;20755;-81
2022/12/21 14:33:54;;;;;;;21.13;8.73;;;;;;;;;;4950356;28;20807;-83
2022/12/21 14:36:20;;;;;;;16.23;7.50;;;;;;;;;;4996390;28;20457;-82
2022/12/21 14:39:01;;;;;;;19.13;8.83;;;;;;;;;;5011348;28;20446;-82
2022/12/21 14:41:33;;;;;;;19.33;8.27;;;;;;;;;;5010981;28;20418;-80
2022/12/21 14:44:17;;;;;;;22.27;8.63;;;;;;;;;;5010971;28;20433;-82
2022/12/21 14:47:02;;;;;;;15.67;7.50;;;;;;;;;;5011716;28;20417;-79
2022/12/21 14:49:30;;;;;;;17.73;7.70;;;;;;;;;;5011918;28;20520;-81
2022/12/21 14:51:59;;;;;;;19.37;7.30;;;;;;;;;;5011863;28;20516;-80